Time;durP1;ratioP1;P1;durP2;ratioP2;P2;SDS_P1;SDS_P2;PMS_P1;PMS_P2;Temp;Humidity;BMP_temperature;BMP_pressure;BME280_temperature;BME280_humidity;BME280_pressure;Samples;Min_cycle;Max_cycle;Signal;HPM_P1;HPM_P2
2023/09/22 00:02:09;;;;;;;1.08;0.20;;;21.70;70.00;;;;;;5065474;28;20033;-82
2023/09/22 00:04:35;;;;;;;0.30;0.22;;;21.70;70.00;;;;;;5066325;28;20024;-82
2023/09/22 00:07:01;;;;;;;0.35;0.30;;;21.70;70.00;;;;;;5064526;28;20048;-82
2023/09/22 00:09:26;;;;;;;0.20;0.20;;;21.70;70.00;;;;;;5065144;28;20063;-82
2023/09/22 00:11:52;;;;;;;0.20;0.20;;;21.70;70.00;;;;;;5066399;28;20518;-82
2023/09/22 00:14:18;;;;;;;0.22;0.22;;;21.70;69.90;;;;;;5064426;28;20498;-82
2023/09/22 00:16:43;;;;;;;1.80;0.30;;;21.70;69.90;;;;;;5063395;28;20061;-81
2023/09/22 00:19:09;;;;;;;0.65;0.40;;;21.70;69.90;;;;;;5064860;28;20117;-82
2023/09/22 00:21:35;;;;;;;0.30;0.20;;;21.70;70.10;;;;;;5064602;28;20031;-81
2023/09/22 00:24:02;;;;;;;1.15;0.20;;;21.70;70.00;;;;;;5064650;28;20036;-82
2023/09/22 00:26:28;;;;;;;0.32;0.30;;;21.70;69.90;;;;;;5064636;28;20013;-81
2023/09/22 00:28:54;;;;;;;0.57;0.20;;;21.70;70.00;;;;;;5065235;28;20017;-82
2023/09/22 00:31:19;;;;;;;0.30;0.30;;;21.70;69.90;;;;;;5064810;28;20032;-82
2023/09/22 00:33:45;;;;;;;0.50;0.40;;;21.70;69.90;;;;;;5063025;28;20568;-82
2023/09/22 00:36:11;;;;;;;0.43;0.40;;;21.70;69.90;;;;;;5065717;28;20032;-82
2023/09/22 00:38:36;;;;;;;1.42;0.30;;;21.70;70.00;;;;;;5067845;28;20050;-80
2023/09/22 00:41:02;;;;;;;0.43;0.32;;;21.70;70.00;;;;;;5064422;28;20028;-81
2023/09/22 00:43:28;;;;;;;0.20;0.20;;;21.70;70.00;;;;;;5060073;28;20102;-81
2023/09/22 00:45:53;;;;;;;1.45;0.25;;;21.60;70.00;;;;;;5063818;28;20138;-81
2023/09/22 00:48:23;;;;;;;0.47;0.28;;;21.60;70.10;;;;;;5059574;28;20033;-81
2023/09/22 00:50:50;;;;;;;1.00;0.30;;;21.60;70.10;;;;;;5064347;28;20032;-81
2023/09/22 00:53:15;;;;;;;0.43;0.43;;;21.60;70.00;;;;;;5059204;28;21155;-81
2023/09/22 00:55:41;;;;;;;1.48;0.30;;;21.60;70.80;;;;;;5048970;28;20078;-81
2023/09/22 00:58:07;;;;;;;0.35;0.20;;;21.60;70.10;;;;;;5062366;28;20032;-81
2023/09/22 01:00:32;;;;;;;0.30;0.30;;;21.60;69.90;;;;;;5062166;28;20028;-81
2023/09/22 01:02:59;;;;;;;0.50;0.40;;;21.60;69.80;;;;;;5064398;28;20036;-81
2023/09/22 01:05:25;;;;;;;0.30;0.30;;;21.60;69.80;;;;;;5064144;28;20017;-81
2023/09/22 01:07:50;;;;;;;0.20;0.20;;;21.50;69.80;;;;;;5061364;28;20028;-81
2023/09/22 01:10:16;;;;;;;0.55;0.25;;;21.50;69.80;;;;;;5046102;28;20478;-81
2023/09/22 01:12:41;;;;;;;0.40;0.30;;;21.50;69.70;;;;;;5065570;28;20028;-81
2023/09/22 01:15:09;;;;;;;0.30;0.30;;;21.50;69.60;;;;;;5064493;28;20024;-81
2023/09/22 01:17:34;;;;;;;0.30;0.30;;;21.50;69.70;;;;;;5066207;28;20425;-81
2023/09/22 01:20:00;;;;;;;0.20;0.20;;;21.50;69.60;;;;;;5064085;28;20494;-81
2023/09/22 01:22:26;;;;;;;0.40;0.40;;;21.50;69.60;;;;;;5062967;28;20027;-81
2023/09/22 01:24:51;;;;;;;0.40;0.30;;;21.50;69.50;;;;;;5063066;28;20494;-81
2023/09/22 01:27:18;;;;;;;0.63;0.43;;;21.50;69.60;;;;;;5065192;28;20014;-81
2023/09/22 01:29:43;;;;;;;0.55;0.30;;;21.50;69.60;;;;;;5060835;28;20079;-81
2023/09/22 01:32:09;;;;;;;0.47;0.40;;;21.50;69.60;;;;;;5060835;28;20032;-81
2023/09/22 01:34:35;;;;;;;0.43;0.40;;;21.50;69.50;;;;;;5063410;28;20021;-81
2023/09/22 01:37:07;;;;;;;0.57;0.20;;;21.50;69.50;;;;;;5068554;28;20440;-81
2023/09/22 01:39:33;;;;;;;0.50;0.30;;;21.50;69.50;;;;;;5068140;28;20047;-81
2023/09/22 01:41:59;;;;;;;0.20;0.20;;;21.50;69.40;;;;;;5066242;28;20413;-82
2023/09/22 01:44:25;;;;;;;0.20;0.20;;;21.50;69.30;;;;;;5068068;28;20021;-82
2023/09/22 01:46:51;;;;;;;0.43;0.38;;;21.50;69.40;;;;;;5066645;28;20024;-79
2023/09/22 01:49:16;;;;;;;0.30;0.30;;;21.50;69.00;;;;;;5067219;28;20025;-82
2023/09/22 01:51:42;;;;;;;0.40;0.40;;;21.50;68.60;;;;;;5062184;28;20490;-82
2023/09/22 01:54:08;;;;;;;0.50;0.30;;;21.60;69.00;;;;;;5059017;28;20079;-82
2023/09/22 01:56:34;;;;;;;0.30;0.20;;;21.50;69.00;;;;;;5066741;28;20028;-82
2023/09/22 01:59:00;;;;;;;0.63;0.47;;;21.50;68.80;;;;;;5066126;28;20413;-83
2023/09/22 02:01:25;;;;;;;0.30;0.30;;;21.50;68.60;;;;;;5062823;28;20088;-82
2023/09/22 02:03:54;;;;;;;0.50;0.20;;;21.50;68.80;;;;;;5061730;28;20017;-83
2023/09/22 02:06:19;;;;;;;0.40;0.30;;;21.50;69.00;;;;;;5066216;28;20021;-81
2023/09/22 02:08:45;;;;;;;0.63;0.32;;;21.50;68.80;;;;;;5068363;28;20029;-83
2023/09/22 02:11:11;;;;;;;0.45;0.30;;;21.50;68.80;;;;;;5066824;28;20029;-82
2023/09/22 02:13:37;;;;;;;0.45;0.30;;;21.50;68.90;;;;;;5061940;28;20052;-80
2023/09/22 02:16:03;;;;;;;0.40;0.32;;;21.50;69.00;;;;;;5059275;28;20028;-80
2023/09/22 02:18:29;;;;;;;0.22;0.20;;;21.50;69.80;;;;;;5061589;28;20029;-80
2023/09/22 02:20:56;;;;;;;1.20;0.60;;;21.50;68.90;;;;;;5064119;28;20039;-81
2023/09/22 02:23:21;;;;;;;0.40;0.22;;;21.50;69.00;;;;;;5063803;28;20508;-83
2023/09/22 02:25:47;;;;;;;1.48;0.57;;;21.50;68.90;;;;;;5063140;28;20055;-84
2023/09/22 02:28:12;;;;;;;0.50;0.50;;;21.50;69.10;;;;;;5063148;28;20028;-81
2023/09/22 02:30:39;;;;;;;0.28;0.28;;;21.60;68.90;;;;;;5064142;28;20114;-80
2023/09/22 02:33:04;;;;;;;0.28;0.20;;;21.60;68.90;;;;;;5063698;28;20056;-80
2023/09/22 02:35:30;;;;;;;0.52;0.47;;;21.60;68.90;;;;;;5067523;28;20067;-80
2023/09/22 02:37:55;;;;;;;0.40;0.30;;;21.60;69.20;;;;;;5063789;28;20032;-81
2023/09/22 02:40:21;;;;;;;0.70;0.30;;;21.60;69.40;;;;;;5066003;28;20051;-80
2023/09/22 02:42:47;;;;;;;0.50;0.40;;;21.50;69.20;;;;;;5061277;28;20587;-81
2023/09/22 02:45:13;;;;;;;0.45;0.20;;;21.60;69.00;;;;;;5059108;28;20115;-80
2023/09/22 02:47:40;;;;;;;0.20;0.20;;;21.60;69.10;;;;;;5065729;28;20016;-82
2023/09/22 02:50:09;;;;;;;1.10;0.30;;;21.60;69.10;;;;;;5048623;28;20025;-82
2023/09/22 02:52:36;;;;;;;0.30;0.30;;;21.60;69.10;;;;;;5066471;28;20397;-81
2023/09/22 02:55:03;;;;;;;0.73;0.20;;;21.60;69.20;;;;;;5063466;28;20389;-81
2023/09/22 02:57:29;;;;;;;0.20;0.20;;;21.60;69.30;;;;;;5064793;28;20035;-80
2023/09/22 02:59:54;;;;;;;0.32;0.32;;;21.60;69.40;;;;;;5066644;28;20567;-81
2023/09/22 03:02:20;;;;;;;0.28;0.25;;;21.50;69.40;;;;;;5065481;28;20032;-81
2023/09/22 03:04:47;;;;;;;0.32;0.32;;;21.60;69.50;;;;;;5066050;28;20438;-81
2023/09/22 03:07:13;;;;;;;0.35;0.30;;;21.60;69.40;;;;;;5065821;28;20115;-81
2023/09/22 03:09:38;;;;;;;0.60;0.20;;;21.50;69.30;;;;;;5047112;28;20112;-82
2023/09/22 03:12:04;;;;;;;0.30;0.30;;;21.50;69.40;;;;;;5065321;28;20417;-82
2023/09/22 03:14:30;;;;;;;0.30;0.20;;;21.50;69.30;;;;;;5062726;28;20032;-81
2023/09/22 03:16:57;;;;;;;0.30;0.30;;;21.50;69.20;;;;;;5064811;28;20016;-82
2023/09/22 03:19:23;;;;;;;0.25;0.20;;;21.50;69.30;;;;;;5065699;28;20044;-82
2023/09/22 03:21:48;;;;;;;0.20;0.20;;;21.50;69.00;;;;;;5064886;28;20036;-82
2023/09/22 03:24:14;;;;;;;0.50;0.30;;;21.50;69.20;;;;;;5065653;28;20032;-83
2023/09/22 03:26:40;;;;;;;0.52;0.30;;;21.50;69.10;;;;;;5066150;28;20020;-83
2023/09/22 03:29:05;;;;;;;0.35;0.30;;;21.50;69.10;;;;;;5062769;28;20487;-83
2023/09/22 03:31:31;;;;;;;0.65;0.20;;;21.50;69.00;;;;;;5062087;28;20016;-82
2023/09/22 03:33:56;;;;;;;0.25;0.20;;;21.50;69.00;;;;;;5061777;28;20027;-82
2023/09/22 03:36:22;;;;;;;0.20;0.20;;;21.50;68.90;;;;;;5062633;28;20033;-82
2023/09/22 03:38:48;;;;;;;0.10;0.10;;;21.50;68.90;;;;;;5065728;28;20036;-82
2023/09/22 03:41:15;;;;;;;0.25;0.25;;;21.50;68.80;;;;;;5063936;28;20033;-82
2023/09/22 03:43:41;;;;;;;0.25;0.20;;;21.50;68.90;;;;;;5061408;28;20111;-82
2023/09/22 03:46:07;;;;;;;0.30;0.20;;;21.50;68.90;;;;;;5064530;28;20036;-82
2023/09/22 03:48:32;;;;;;;0.40;0.40;;;21.50;68.90;;;;;;5065266;28;20191;-82
2023/09/22 03:50:58;;;;;;;0.35;0.20;;;21.50;68.90;;;;;;5033204;28;20478;-82
2023/09/22 03:53:24;;;;;;;0.28;0.28;;;21.40;68.90;;;;;;5066595;28;20141;-81
2023/09/22 03:55:49;;;;;;;0.30;0.20;;;21.50;69.00;;;;;;5062815;28;20028;-82
2023/09/22 03:58:17;;;;;;;0.45;0.40;;;21.50;69.00;;;;;;5062770;28;20076;-81
2023/09/22 04:00:43;;;;;;;0.28;0.28;;;21.50;69.00;;;;;;5064091;28;20023;-82
2023/09/22 04:03:09;;;;;;;0.57;0.43;;;21.50;69.00;;;;;;5062615;28;20118;-82
2023/09/22 04:05:36;;;;;;;0.60;0.30;;;21.50;68.80;;;;;;5064404;28;20490;-82
2023/09/22 04:08:02;;;;;;;0.20;0.20;;;21.50;68.90;;;;;;5064090;28;20445;-82
2023/09/22 04:10:27;;;;;;;0.20;0.20;;;21.50;69.00;;;;;;5061281;28;20062;-82
2023/09/22 04:12:53;;;;;;;0.20;0.20;;;21.50;68.80;;;;;;5062664;28;20047;-82
2023/09/22 04:15:19;;;;;;;0.10;0.10;;;21.50;68.90;;;;;;5088349;28;20095;-82
2023/09/22 04:17:47;;;;;;;1.45;0.40;;;21.50;68.90;;;;;;5064817;28;20058;-82
2023/09/22 04:20:16;;;;;;;0.38;0.20;;;21.50;68.90;;;;;;5063470;28;20041;-82
2023/09/22 04:22:43;;;;;;;0.20;0.17;;;21.40;68.80;;;;;;5063443;28;20098;-82
2023/09/22 04:25:11;;;;;;;0.10;0.10;;;21.50;68.70;;;;;;5060885;28;20030;-83
2023/09/22 04:27:46;;;;;;;0.40;0.40;;;21.40;68.90;;;;;;5063951;28;20020;-82
2023/09/22 04:30:15;;;;;;;0.28;0.28;;;21.50;68.90;;;;;;5064747;28;20388;-82
2023/09/22 04:32:42;;;;;;;0.20;0.10;;;21.50;68.80;;;;;;5066366;28;20031;-82
2023/09/22 04:35:09;;;;;;;1.63;0.30;;;21.40;68.90;;;;;;5062540;28;20040;-81
2023/09/22 04:37:35;;;;;;;0.20;0.20;;;21.40;68.90;;;;;;5065368;28;20058;-82
2023/09/22 04:40:01;;;;;;;0.20;0.10;;;21.40;68.90;;;;;;5060772;28;20137;-82
2023/09/22 04:42:27;;;;;;;0.32;0.32;;;21.40;68.90;;;;;;5062486;28;20029;-82
2023/09/22 04:44:52;;;;;;;0.10;0.10;;;21.40;69.00;;;;;;5063568;28;20027;-82
2023/09/22 04:47:18;;;;;;;0.17;0.17;;;21.40;68.90;;;;;;5064056;28;20029;-82
2023/09/22 04:49:44;;;;;;;0.63;0.10;;;21.40;68.90;;;;;;5061552;28;20264;-82
2023/09/22 04:52:10;;;;;;;0.20;0.17;;;21.40;69.00;;;;;;5061704;28;20196;-81
2023/09/22 04:54:36;;;;;;;0.20;0.10;;;21.40;68.80;;;;;;5059907;28;20025;-82
2023/09/22 04:57:02;;;;;;;0.15;0.15;;;21.40;69.20;;;;;;5059510;28;20159;-82
2023/09/22 04:59:28;;;;;;;0.10;0.10;;;21.40;68.90;;;;;;5066057;28;20028;-82
2023/09/22 05:01:54;;;;;;;0.10;0.10;;;21.40;68.80;;;;;;5062462;28;20500;-82
2023/09/22 05:04:23;;;;;;;0.38;0.17;;;21.40;68.80;;;;;;5063608;28;20033;-82
2023/09/22 05:06:49;;;;;;;0.30;0.13;;;21.40;68.80;;;;;;5064990;28;20025;-80
2023/09/22 05:09:15;;;;;;;0.43;0.15;;;21.40;68.80;;;;;;5063525;28;20032;-83
2023/09/22 05:11:40;;;;;;;0.13;0.13;;;21.40;68.80;;;;;;5069814;28;20025;-83
2023/09/22 05:14:06;;;;;;;0.17;0.10;;;21.40;68.70;;;;;;5050650;28;20091;-85
2023/09/22 05:16:32;;;;;;;0.13;0.10;;;21.40;68.70;;;;;;5066212;28;20031;-84
2023/09/22 05:18:59;;;;;;;0.17;0.15;;;21.40;68.80;;;;;;5062936;28;20406;-84
2023/09/22 05:21:25;;;;;;;0.20;0.10;;;21.40;68.80;;;;;;5065566;28;20025;-85
2023/09/22 05:23:51;;;;;;;0.10;0.10;;;21.40;68.70;;;;;;5060132;28;20078;-85
2023/09/22 05:26:16;;;;;;;0.13;0.10;;;21.40;68.60;;;;;;5066919;28;20021;-85
2023/09/22 05:28:42;;;;;;;0.10;0.10;;;21.40;68.60;;;;;;5068063;28;20521;-86
2023/09/22 05:31:08;;;;;;;0.13;0.10;;;21.40;68.80;;;;;;5063914;28;20021;-87
2023/09/22 05:33:36;;;;;;;0.30;0.13;;;21.40;69.60;;;;;;5067257;28;20020;-86
2023/09/22 05:36:02;;;;;;;0.32;0.32;;;21.40;68.30;;;;;;5062503;28;20041;-84
2023/09/22 05:38:28;;;;;;;0.50;0.30;;;21.10;59.70;;;;;;5068298;28;20032;-81
2023/09/22 05:40:53;;;;;;;1.15;0.22;;;20.40;59.60;;;;;;5063197;28;20033;-84
2023/09/22 05:43:22;;;;;;;0.68;0.35;;;20.00;59.50;;;;;;5066799;28;20032;-80
2023/09/22 05:45:55;;;;;;;1.67;0.30;;;19.80;59.80;;;;;;5066084;28;20020;-78
2023/09/22 05:48:21;;;;;;;0.30;0.30;;;19.70;59.70;;;;;;5063080;28;20017;-83
2023/09/22 05:50:55;;;;;;;0.30;0.30;;;19.60;59.90;;;;;;5066449;28;20029;-80
2023/09/22 05:53:20;;;;;;;;;;;19.40;59.80;;;;;;5067135;28;20032;-79
2023/09/22 05:55:46;;;;;;;1.85;0.43;;;19.30;60.30;;;;;;5066381;28;20540;-79
2023/09/22 05:58:13;;;;;;;0.80;0.50;;;19.20;60.40;;;;;;5065510;28;20024;-79
2023/09/22 06:00:39;;;;;;;0.35;0.30;;;19.30;59.90;;;;;;5064963;28;20037;-79
2023/09/22 06:03:05;;;;;;;0.80;0.30;;;19.10;60.40;;;;;;4705187;28;10000589;-79
2023/09/22 06:05:31;;;;;;;1.13;0.63;;;18.90;60.80;;;;;;5058507;28;20061;-79
2023/09/22 06:07:59;;;;;;;0.73;0.50;;;18.80;60.90;;;;;;5057292;28;20111;-79
2023/09/22 06:10:24;;;;;;;0.70;0.32;;;18.70;61.40;;;;;;5060144;28;20025;-79
2023/09/22 06:12:50;;;;;;;0.65;0.65;;;18.60;61.60;;;;;;5058783;28;20078;-79
2023/09/22 06:15:16;;;;;;;0.90;0.50;;;18.60;61.80;;;;;;5061006;28;20025;-80
2023/09/22 06:17:41;;;;;;;1.77;0.32;;;18.50;61.70;;;;;;5062360;28;20032;-78
2023/09/22 06:20:09;;;;;;;0.77;0.50;;;18.50;61.90;;;;;;5062484;28;20052;-80
2023/09/22 06:22:35;;;;;;;0.75;0.50;;;18.50;62.10;;;;;;5060761;28;20032;-80
2023/09/22 06:25:01;;;;;;;0.50;0.32;;;18.40;61.90;;;;;;5058496;28;20031;-79
2023/09/22 06:27:27;;;;;;;0.38;0.38;;;18.30;62.50;;;;;;5059604;28;20044;-79
2023/09/22 06:29:53;;;;;;;0.85;0.50;;;18.30;63.20;;;;;;5062598;28;20024;-79
2023/09/22 06:32:18;;;;;;;0.40;0.40;;;18.30;62.60;;;;;;5061816;28;20367;-79
2023/09/22 06:34:44;;;;;;;0.50;0.50;;;18.20;63.00;;;;;;5058187;28;20506;-79
2023/09/22 06:37:09;;;;;;;0.50;0.30;;;18.30;63.10;;;;;;5059364;28;20025;-78
2023/09/22 06:39:35;;;;;;;0.40;0.28;;;18.20;63.10;;;;;;5058439;28;20040;-79
2023/09/22 06:42:01;;;;;;;0.68;0.68;;;18.20;63.20;;;;;;5059188;28;20500;-79
2023/09/22 06:44:27;;;;;;;0.50;0.50;;;18.10;63.30;;;;;;5061943;28;20111;-79
2023/09/22 06:46:53;;;;;;;0.30;0.30;;;18.20;64.20;;;;;;5064821;28;20017;-79
2023/09/22 06:49:19;;;;;;;0.93;0.38;;;18.50;63.60;;;;;;5062676;28;20028;-79
2023/09/22 06:51:44;;;;;;;0.90;0.55;;;18.90;62.70;;;;;;5064338;28;20237;-79
2023/09/22 06:54:10;;;;;;;1.58;0.52;;;19.20;62.40;;;;;;5064818;28;20472;-79
2023/09/22 06:56:36;;;;;;;0.30;0.30;;;19.30;61.90;;;;;;5067393;28;20032;-79
2023/09/22 06:59:02;;;;;;;0.55;0.40;;;19.40;61.50;;;;;;5065031;28;20029;-79
2023/09/22 07:01:28;;;;;;;0.30;0.25;;;19.40;61.60;;;;;;5066122;28;20441;-79
2023/09/22 07:03:53;;;;;;;0.82;0.40;;;19.40;61.60;;;;;;5062474;28;20028;-80
2023/09/22 07:06:19;;;;;;;0.40;0.30;;;19.50;61.70;;;;;;5061552;28;20071;-80
2023/09/22 07:08:46;;;;;;;2.97;0.30;;;19.50;61.80;;;;;;5067325;28;20031;-79
2023/09/22 07:11:11;;;;;;;1.25;0.35;;;19.50;61.90;;;;;;5067436;28;20024;-79
2023/09/22 07:13:37;;;;;;;0.90;0.40;;;19.60;61.90;;;;;;5063187;28;20509;-79
2023/09/22 07:16:04;;;;;;;1.17;0.40;;;19.70;61.80;;;;;;5064092;28;20444;-79
2023/09/22 07:18:29;;;;;;;0.60;0.40;;;19.70;62.00;;;;;;5063360;28;20120;-79
2023/09/22 07:20:55;;;;;;;1.10;0.30;;;19.80;62.10;;;;;;5066963;28;20557;-79
2023/09/22 07:23:21;;;;;;;0.47;0.40;;;19.80;62.10;;;;;;5051611;28;20020;-79
2023/09/22 07:26:03;;;;;;;0.57;0.30;;;19.80;62.20;;;;;;5064862;28;20462;-79
2023/09/22 07:28:29;;;;;;;0.40;0.32;;;19.80;62.40;;;;;;5062732;28;20525;-79
2023/09/22 07:30:55;;;;;;;0.30;0.30;;;19.90;62.60;;;;;;5063835;28;20064;-79
2023/09/22 07:33:21;;;;;;;0.50;0.30;;;19.90;62.70;;;;;;5067497;28;20025;-79
2023/09/22 07:35:49;;;;;;;0.20;0.20;;;19.90;63.00;;;;;;5065702;28;20548;-79
2023/09/22 07:38:17;;;;;;;0.80;0.40;;;19.90;63.10;;;;;;5066921;28;20055;-79
2023/09/22 07:40:43;;;;;;;0.77;0.30;;;19.90;63.40;;;;;;5064665;28;20021;-79
2023/09/22 07:43:09;;;;;;;1.25;0.52;;;20.00;63.40;;;;;;5062114;28;20494;-79
2023/09/22 07:45:34;;;;;;;0.35;0.32;;;19.90;63.50;;;;;;5063223;28;20025;-79
2023/09/22 07:48:00;;;;;;;0.30;0.28;;;20.00;63.90;;;;;;5065193;28;20013;-79
2023/09/22 07:50:26;;;;;;;0.28;0.20;;;20.00;64.00;;;;;;5066900;28;20472;-79
2023/09/22 07:52:52;;;;;;;0.40;0.40;;;20.00;64.10;;;;;;5064547;28;20020;-79
2023/09/22 07:55:18;;;;;;;0.20;0.20;;;20.00;64.30;;;;;;5064044;28;20047;-79
2023/09/22 07:57:48;;;;;;;0.70;0.20;;;20.00;64.30;;;;;;5063551;28;20513;-79
2023/09/22 08:00:14;;;;;;;1.35;0.30;;;20.00;64.40;;;;;;5063294;28;20021;-79
2023/09/22 08:02:40;;;;;;;2.35;0.82;;;20.10;64.60;;;;;;5062251;28;20032;-79
2023/09/22 08:05:06;;;;;;;1.83;0.32;;;20.10;64.70;;;;;;5064937;28;20039;-79
2023/09/22 08:07:32;;;;;;;0.82;0.30;;;20.10;64.80;;;;;;5063200;28;20086;-79
2023/09/22 08:09:57;;;;;;;0.63;0.30;;;20.10;64.90;;;;;;5062576;28;20490;-79
2023/09/22 08:12:23;;;;;;;0.30;0.30;;;20.10;64.90;;;;;;5062450;28;20166;-79
2023/09/22 08:14:49;;;;;;;0.30;0.30;;;20.10;65.00;;;;;;5065129;28;20032;-79
2023/09/22 08:17:15;;;;;;;0.20;0.20;;;20.20;65.10;;;;;;5064232;28;20518;-79
2023/09/22 08:19:41;;;;;;;0.30;0.30;;;20.20;65.10;;;;;;5064270;28;20044;-79
2023/09/22 08:22:06;;;;;;;0.30;0.30;;;20.20;65.10;;;;;;5062910;28;20033;-79
2023/09/22 08:24:32;;;;;;;0.30;0.30;;;20.30;65.10;;;;;;5061041;28;20051;-79
2023/09/22 08:26:59;;;;;;;0.70;0.35;;;20.30;65.00;;;;;;5064781;28;20024;-79
2023/09/22 08:29:25;;;;;;;0.30;0.30;;;20.40;65.00;;;;;;5065886;28;20412;-79
2023/09/22 08:31:51;;;;;;;0.40;0.40;;;20.40;65.00;;;;;;5063630;28;20025;-79
2023/09/22 08:34:16;;;;;;;0.30;0.30;;;20.40;65.10;;;;;;5062113;28;20394;-79
2023/09/22 08:36:42;;;;;;;0.50;0.20;;;20.40;65.20;;;;;;5048433;28;20117;-80
2023/09/22 08:39:08;;;;;;;0.28;0.28;;;20.40;65.20;;;;;;5063374;28;20029;-79
2023/09/22 08:41:37;;;;;;;0.40;0.30;;;20.40;65.30;;;;;;5067068;28;20463;-79
2023/09/22 08:44:04;;;;;;;0.63;0.40;;;20.50;65.30;;;;;;5063996;28;20016;-79
2023/09/22 08:46:30;;;;;;;0.68;0.30;;;20.50;65.30;;;;;;5062371;28;20023;-79
2023/09/22 08:48:55;;;;;;;0.95;0.25;;;20.50;65.30;;;;;;5047186;28;20440;-79
2023/09/22 08:51:21;;;;;;;0.28;0.20;;;20.50;65.40;;;;;;5061497;28;20509;-79
2023/09/22 08:53:47;;;;;;;0.60;0.30;;;20.50;65.20;;;;;;5062708;28;20039;-79
2023/09/22 08:56:12;;;;;;;0.80;0.60;;;20.60;65.20;;;;;;5061907;28;20029;-79
2023/09/22 08:58:38;;;;;;;0.45;0.30;;;20.60;65.90;;;;;;5064203;28;20024;-79
2023/09/22 09:01:04;;;;;;;0.20;0.20;;;20.60;65.00;;;;;;5063068;28;20020;-79
2023/09/22 09:03:31;;;;;;;0.28;0.15;;;20.70;65.10;;;;;;5064671;28;20397;-79
2023/09/22 09:06:06;;;;;;;0.43;0.20;;;20.70;65.10;;;;;;5062560;28;20486;-79
2023/09/22 09:08:34;;;;;;;1.48;0.20;;;20.70;65.00;;;;;;5065168;28;20029;-79
2023/09/22 09:11:04;;;;;;;0.30;0.20;;;20.80;64.70;;;;;;5061425;28;20070;-79
2023/09/22 09:13:29;;;;;;;0.40;0.20;;;20.80;64.50;;;;;;5064037;28;20086;-79
2023/09/22 09:15:57;;;;;;;1.42;0.30;;;20.80;64.90;;;;;;5060558;28;20016;-79
2023/09/22 09:18:24;;;;;;;0.70;0.30;;;20.90;64.80;;;;;;5060053;28;20051;-79
2023/09/22 09:21:09;;;;;;;0.60;0.30;;;20.90;64.60;;;;;;5064820;28;20094;-79
2023/09/22 09:23:35;;;;;;;0.10;0.10;;;20.90;64.50;;;;;;5049040;28;20056;-79
2023/09/22 09:26:01;;;;;;;0.38;0.28;;;20.90;63.70;;;;;;5064050;28;20052;-79
2023/09/22 09:28:28;;;;;;;0.20;0.20;;;20.90;64.60;;;;;;5061423;28;20410;-79
2023/09/22 09:30:55;;;;;;;0.40;0.30;;;20.90;64.60;;;;;;5063305;28;20033;-79
2023/09/22 09:33:24;;;;;;;0.10;0.10;;;21.00;64.80;;;;;;5061177;28;20024;-79
2023/09/22 09:35:50;;;;;;;0.30;0.20;;;21.00;65.40;;;;;;5062824;28;20078;-79
2023/09/22 09:38:17;;;;;;;0.20;0.20;;;21.00;65.10;;;;;;5057259;28;20036;-80
2023/09/22 09:40:43;;;;;;;0.45;0.30;;;21.00;64.70;;;;;;5064563;28;20390;-79
2023/09/22 09:43:10;;;;;;;0.20;0.20;;;21.10;64.60;;;;;;5063044;28;20028;-79
2023/09/22 09:45:40;;;;;;;0.20;0.10;;;21.00;64.30;;;;;;5062737;28;20063;-79
2023/09/22 09:48:09;;;;;;;0.25;0.22;;;21.10;64.60;;;;;;5045973;28;20025;-79
2023/09/22 09:50:35;;;;;;;0.30;0.20;;;21.10;64.40;;;;;;5063833;28;20429;-79
2023/09/22 09:53:06;;;;;;;0.47;0.22;;;21.10;64.20;;;;;;5061749;28;20060;-79
2023/09/22 09:55:32;;;;;;;1.08;0.30;;;21.10;64.20;;;;;;5060712;28;20036;-79
2023/09/22 09:57:57;;;;;;;0.20;0.20;;;21.10;64.30;;;;;;5063682;28;20027;-79
2023/09/22 10:00:24;;;;;;;0.20;0.20;;;21.20;64.20;;;;;;5049542;28;20405;-79
2023/09/22 10:02:50;;;;;;;0.40;0.20;;;21.20;64.10;;;;;;5067819;28;20013;-79
2023/09/22 10:05:16;;;;;;;0.95;0.20;;;21.20;64.20;;;;;;5065382;28;20021;-79
2023/09/22 10:07:45;;;;;;;0.35;0.35;;;21.20;64.00;;;;;;5064785;28;20025;-79
2023/09/22 10:10:20;;;;;;;0.20;0.20;;;21.20;64.00;;;;;;5065021;28;20055;-78
2023/09/22 10:12:46;;;;;;;0.57;0.30;;;21.20;64.10;;;;;;5059803;28;20443;-79
2023/09/22 10:15:12;;;;;;;0.52;0.38;;;21.20;64.20;;;;;;5064974;28;20028;-79
2023/09/22 10:17:38;;;;;;;0.20;0.10;;;21.20;63.70;;;;;;5069315;28;20070;-79
2023/09/22 10:20:11;;;;;;;0.68;0.20;;;21.20;64.30;;;;;;5066490;28;20040;-79
2023/09/22 10:22:37;;;;;;;0.30;0.20;;;21.20;64.20;;;;;;5066467;28;20041;-80
2023/09/22 10:25:12;;;;;;;1.63;0.65;;;21.20;64.80;;;;;;5062649;28;20671;-79
2023/09/22 10:27:50;;;;;;;0.40;0.20;;;21.20;64.00;;;;;;5065577;28;20056;-79
2023/09/22 10:30:16;;;;;;;0.20;0.20;;;21.20;64.40;;;;;;5062935;28;20036;-79
2023/09/22 10:32:42;;;;;;;0.20;0.10;;;21.20;64.60;;;;;;5093703;28;20024;-79
2023/09/22 10:35:14;;;;;;;0.30;0.20;;;21.20;64.60;;;;;;4707539;28;9999915;-79
2023/09/22 10:38:00;;;;;;;0.95;0.30;;;21.20;64.40;;;;;;5061511;28;20021;-79
2023/09/22 10:40:25;;;;;;;0.25;0.20;;;21.30;65.00;;;;;;5061826;28;20105;-79
2023/09/22 10:42:51;;;;;;;0.35;0.30;;;21.30;64.40;;;;;;5058283;28;21560;-79
2023/09/22 10:45:21;;;;;;;0.50;0.20;;;21.30;64.40;;;;;;5057613;28;20021;-79
2023/09/22 10:47:49;;;;;;;0.55;0.20;;;21.30;64.40;;;;;;5089600;28;20431;-79
2023/09/22 10:50:31;;;;;;;1.10;0.10;;;21.30;64.40;;;;;;5061490;28;20035;-79
2023/09/22 10:53:03;;;;;;;0.38;0.30;;;21.30;64.40;;;;;;5060242;28;20052;-79
2023/09/22 10:55:38;;;;;;;0.50;0.30;;;21.30;64.30;;;;;;5059578;28;20067;-80
2023/09/22 10:58:05;;;;;;;0.50;0.30;;;21.30;64.40;;;;;;4707494;28;10000451;-77
2023/09/22 11:00:44;;;;;;;0.30;0.20;;;21.30;64.20;;;;;;5043582;28;10000602;-79
2023/09/22 11:03:11;;;;;;;0.45;0.30;;;21.30;64.30;;;;;;5065872;28;20269;-78
2023/09/22 11:05:38;;;;;;;2.17;1.85;;;21.30;64.40;;;;;;5057645;28;20100;-79
2023/09/22 11:08:13;;;;;;;1.58;1.52;;;21.40;64.40;;;;;;5086461;28;20115;-81
2023/09/22 11:10:39;;;;;;;0.95;0.95;;;21.30;64.60;;;;;;5060148;28;20513;-82
2023/09/22 11:13:05;;;;;;;0.80;0.80;;;21.40;63.80;;;;;;5059881;28;20094;-79
2023/09/22 11:15:31;;;;;;;0.60;0.50;;;21.40;63.00;;;;;;5060849;28;20436;-80
2023/09/22 11:17:56;;;;;;;0.47;0.40;;;21.30;63.30;;;;;;5061831;28;20052;-79
2023/09/22 11:20:27;;;;;;;0.52;0.50;;;21.30;63.50;;;;;;5060209;28;20421;-81
2023/09/22 11:22:52;;;;;;;0.90;0.70;;;21.30;63.10;;;;;;5060542;28;20052;-80
2023/09/22 11:25:21;;;;;;;0.68;0.68;;;21.30;64.80;;;;;;5060453;28;20078;-80
2023/09/22 11:27:49;;;;;;;1.95;0.50;;;21.30;63.40;;;;;;5061031;28;20035;-82
2023/09/22 11:30:27;;;;;;;0.88;0.55;;;21.40;64.00;;;;;;5054415;28;20108;-79
2023/09/22 11:32:54;;;;;;;1.17;0.40;;;21.40;62.40;;;;;;5057223;28;20503;-79
2023/09/22 11:35:39;;;;;;;2.60;0.60;;;21.40;61.40;;;;;;5045335;28;20103;-79
2023/09/22 11:38:31;;;;;;;0.98;0.60;;;21.30;60.70;;;;;;5058623;28;20616;-79
2023/09/22 11:41:10;;;;;;;0.50;0.40;;;21.10;60.80;;;;;;5060497;28;20090;-78
2023/09/22 11:43:49;;;;;;;0.68;0.45;;;21.10;59.60;;;;;;5059500;28;20033;-79
2023/09/22 11:46:17;;;;;;;0.40;0.40;;;21.10;58.90;;;;;;5060172;28;20041;-79
2023/09/22 11:49:05;;;;;;;0.65;0.35;;;21.00;58.70;;;;;;5060558;28;20027;-79
2023/09/22 11:51:43;;;;;;;0.75;0.50;;;21.10;59.00;;;;;;5055750;28;20039;-79
2023/09/22 11:54:09;;;;;;;0.50;0.40;;;21.10;59.20;;;;;;5057536;28;20059;-79
2023/09/22 11:56:35;;;;;;;0.65;0.40;;;21.10;59.00;;;;;;5061730;28;20065;-79
2023/09/22 11:59:07;;;;;;;1.25;0.60;;;21.10;59.00;;;;;;5059565;28;20461;-79
2023/09/22 12:01:33;;;;;;;0.45;0.35;;;21.10;59.00;;;;;;5041468;28;20012;-78
2023/09/22 12:03:59;;;;;;;1.42;0.40;;;21.20;59.50;;;;;;5055326;28;20107;-79
2023/09/22 12:06:25;;;;;;;1.13;0.50;;;21.10;58.90;;;;;;5054774;28;20549;-78
2023/09/22 12:08:51;;;;;;;1.58;0.38;;;20.90;59.30;;;;;;5060725;28;20046;-80
2023/09/22 12:11:17;;;;;;;0.60;0.20;;;21.00;59.70;;;;;;5061056;28;20086;-79
2023/09/22 12:13:43;;;;;;;0.63;0.40;;;21.00;59.30;;;;;;5059888;28;20021;-80
2023/09/22 12:16:09;;;;;;;1.23;0.60;;;20.90;59.70;;;;;;5059503;28;20039;-79
2023/09/22 12:18:34;;;;;;;0.95;0.52;;;20.90;59.50;;;;;;5071562;28;20028;-80
2023/09/22 12:21:00;;;;;;;1.50;0.73;;;21.00;59.40;;;;;;5069327;28;20052;-79
2023/09/22 12:23:25;;;;;;;0.60;0.45;;;21.00;59.80;;;;;;5067001;28;20107;-79
2023/09/22 12:25:54;;;;;;;0.70;0.30;;;21.00;59.50;;;;;;5068126;28;20065;-78
2023/09/22 12:28:19;;;;;;;0.85;0.60;;;21.00;59.50;;;;;;5066037;28;20027;-79
2023/09/22 12:30:45;;;;;;;0.50;0.30;;;21.00;60.20;;;;;;5069996;28;20482;-79
2023/09/22 12:33:11;;;;;;;0.63;0.30;;;20.90;60.00;;;;;;5063149;28;20028;-79
2023/09/22 12:35:38;;;;;;;0.45;0.30;;;20.90;59.80;;;;;;5060319;28;20024;-80
2023/09/22 12:38:04;;;;;;;0.75;0.40;;;21.00;59.50;;;;;;5062703;28;20086;-79
2023/09/22 12:40:30;;;;;;;0.40;0.20;;;21.00;60.10;;;;;;5048644;28;20028;-80
2023/09/22 12:42:55;;;;;;;0.43;0.40;;;21.10;59.80;;;;;;5066005;28;20033;-80
2023/09/22 12:45:22;;;;;;;0.63;0.47;;;21.10;59.40;;;;;;5080933;28;20021;-80